sensor_id;sensor_type;location;lat;lon;timestamp;P1;durP1;ratioP1;P2;durP2;ratioP2
20567;SDS011;10442;49.932;11.592;2023-02-15T00:01:51;11.40;;;9.83;;
20567;SDS011;10442;49.932;11.592;2023-02-15T00:04:20;12.73;;;9.93;;
20567;SDS011;10442;49.932;11.592;2023-02-15T00:06:49;11.63;;;9.10;;
20567;SDS011;10442;49.932;11.592;2023-02-15T00:09:17;11.67;;;8.53;;
20567;SDS011;10442;49.932;11.592;2023-02-15T00:11:44;14.93;;;10.30;;
20567;SDS011;10442;49.932;11.592;2023-02-15T00:14:19;12.17;;;10.93;;
20567;SDS011;10442;49.932;11.592;2023-02-15T00:16:50;11.50;;;9.20;;
20567;SDS011;10442;49.932;11.592;2023-02-15T00:19:19;9.53;;;8.33;;
20567;SDS011;10442;49.932;11.592;2023-02-15T00:21:48;9.97;;;8.37;;
20567;SDS011;10442;49.932;11.592;2023-02-15T00:24:16;11.60;;;9.37;;
20567;SDS011;10442;49.932;11.592;2023-02-15T00:26:45;10.63;;;8.07;;
20567;SDS011;10442;49.932;11.592;2023-02-15T00:29:14;10.83;;;8.30;;
20567;SDS011;10442;49.932;11.592;2023-02-15T00:31:43;10.73;;;9.40;;
20567;SDS011;10442;49.932;11.592;2023-02-15T00:34:12;13.33;;;10.27;;
20567;SDS011;10442;49.932;11.592;2023-02-15T00:36:44;10.33;;;8.07;;
20567;SDS011;10442;49.932;11.592;2023-02-15T00:39:14;11.83;;;10.33;;
20567;SDS011;10442;49.932;11.592;2023-02-15T00:41:43;10.27;;;9.07;;
20567;SDS011;10442;49.932;11.592;2023-02-15T00:44:12;12.87;;;10.03;;
20567;SDS011;10442;49.932;11.592;2023-02-15T00:46:40;10.07;;;8.40;;
20567;SDS011;10442;49.932;11.592;2023-02-15T00:49:08;12.63;;;9.57;;
20567;SDS011;10442;49.932;11.592;2023-02-15T00:51:37;10.60;;;9.30;;
20567;SDS011;10442;49.932;11.592;2023-02-15T00:54:06;11.20;;;9.73;;
20567;SDS011;10442;49.932;11.592;2023-02-15T00:56:33;12.10;;;9.57;;
20567;SDS011;10442;49.932;11.592;2023-02-15T00:59:01;9.80;;;8.47;;
20567;SDS011;10442;49.932;11.592;2023-02-15T01:01:29;9.90;;;7.93;;
20567;SDS011;10442;49.932;11.592;2023-02-15T01:03:56;10.07;;;9.03;;
20567;SDS011;10442;49.932;11.592;2023-02-15T01:06:24;11.20;;;9.33;;
20567;SDS011;10442;49.932;11.592;2023-02-15T01:08:51;8.87;;;7.70;;
20567;SDS011;10442;49.932;11.592;2023-02-15T01:11:19;9.07;;;7.97;;
20567;SDS011;10442;49.932;11.592;2023-02-15T01:13:54;10.60;;;9.10;;
20567;SDS011;10442;49.932;11.592;2023-02-15T01:16:23;10.83;;;9.33;;
20567;SDS011;10442;49.932;11.592;2023-02-15T01:18:52;9.77;;;8.33;;
20567;SDS011;10442;49.932;11.592;2023-02-15T01:21:22;10.47;;;8.47;;
20567;SDS011;10442;49.932;11.592;2023-02-15T01:23:51;11.40;;;8.63;;
20567;SDS011;10442;49.932;11.592;2023-02-15T01:26:18;10.40;;;8.33;;
20567;SDS011;10442;49.932;11.592;2023-02-15T01:28:45;9.57;;;8.27;;
20567;SDS011;10442;49.932;11.592;2023-02-15T01:31:14;11.00;;;7.83;;
20567;SDS011;10442;49.932;11.592;2023-02-15T01:33:45;7.90;;;7.17;;
20567;SDS011;10442;49.932;11.592;2023-02-15T01:36:13;10.60;;;8.43;;
20567;SDS011;10442;49.932;11.592;2023-02-15T01:38:41;9.37;;;8.37;;
20567;SDS011;10442;49.932;11.592;2023-02-15T01:41:09;8.97;;;7.80;;
20567;SDS011;10442;49.932;11.592;2023-02-15T01:43:54;9.03;;;8.13;;
20567;SDS011;10442;49.932;11.592;2023-02-15T01:46:34;10.97;;;8.53;;
20567;SDS011;10442;49.932;11.592;2023-02-15T01:49:09;10.17;;;8.20;;
20567;SDS011;10442;49.932;11.592;2023-02-15T01:51:41;12.53;;;8.73;;
20567;SDS011;10442;49.932;11.592;2023-02-15T01:54:12;11.23;;;9.30;;
20567;SDS011;10442;49.932;11.592;2023-02-15T01:56:45;10.53;;;9.00;;
20567;SDS011;10442;49.932;11.592;2023-02-15T01:59:18;10.00;;;9.00;;
20567;SDS011;10442;49.932;11.592;2023-02-15T02:01:51;11.37;;;8.03;;
20567;SDS011;10442;49.932;11.592;2023-02-15T02:04:34;9.47;;;8.20;;
20567;SDS011;10442;49.932;11.592;2023-02-15T02:07:09;9.90;;;8.70;;
20567;SDS011;10442;49.932;11.592;2023-02-15T02:09:39;9.83;;;7.87;;
20567;SDS011;10442;49.932;11.592;2023-02-15T02:12:07;9.70;;;7.87;;
20567;SDS011;10442;49.932;11.592;2023-02-15T02:14:38;9.60;;;8.60;;
20567;SDS011;10442;49.932;11.592;2023-02-15T02:20:27;11.47;;;8.90;;
20567;SDS011;10442;49.932;11.592;2023-02-15T02:39:41;8.80;;;7.90;;
20567;SDS011;10442;49.932;11.592;2023-02-15T02:45:00;10.13;;;8.70;;
20567;SDS011;10442;49.932;11.592;2023-02-15T02:47:47;8.57;;;7.67;;
20567;SDS011;10442;49.932;11.592;2023-02-15T02:50:21;10.23;;;7.90;;
20567;SDS011;10442;49.932;11.592;2023-02-15T02:52:52;8.93;;;7.53;;
20567;SDS011;10442;49.932;11.592;2023-02-15T02:55:26;8.63;;;7.60;;
20567;SDS011;10442;49.932;11.592;2023-02-15T02:57:57;9.80;;;7.80;;
20567;SDS011;10442;49.932;11.592;2023-02-15T03:00:38;10.63;;;8.03;;
20567;SDS011;10442;49.932;11.592;2023-02-15T03:03:11;8.93;;;7.80;;
20567;SDS011;10442;49.932;11.592;2023-02-15T03:05:45;8.33;;;7.40;;
20567;SDS011;10442;49.932;11.592;2023-02-15T03:08:17;8.13;;;7.17;;
20567;SDS011;10442;49.932;11.592;2023-02-15T03:10:53;7.97;;;7.27;;
20567;SDS011;10442;49.932;11.592;2023-02-15T03:13:22;10.57;;;8.50;;
20567;SDS011;10442;49.932;11.592;2023-02-15T03:15:50;11.90;;;9.27;;
20567;SDS011;10442;49.932;11.592;2023-02-15T03:18:40;8.17;;;6.80;;
20567;SDS011;10442;49.932;11.592;2023-02-15T03:21:21;9.53;;;7.90;;
20567;SDS011;10442;49.932;11.592;2023-02-15T03:23:55;9.80;;;7.77;;
20567;SDS011;10442;49.932;11.592;2023-02-15T03:26:31;8.80;;;6.73;;
20567;SDS011;10442;49.932;11.592;2023-02-15T03:29:00;8.10;;;7.30;;
20567;SDS011;10442;49.932;11.592;2023-02-15T03:31:32;10.17;;;8.63;;
20567;SDS011;10442;49.932;11.592;2023-02-15T03:34:04;10.37;;;8.40;;
20567;SDS011;10442;49.932;11.592;2023-02-15T03:39:23;9.17;;;8.27;;
20567;SDS011;10442;49.932;11.592;2023-02-15T03:42:08;10.77;;;7.97;;
20567;SDS011;10442;49.932;11.592;2023-02-15T03:44:54;9.23;;;8.27;;
20567;SDS011;10442;49.932;11.592;2023-02-15T03:47:36;14.67;;;9.47;;
20567;SDS011;10442;49.932;11.592;2023-02-15T03:52:54;8.00;;;7.20;;
20567;SDS011;10442;49.932;11.592;2023-02-15T03:55:23;10.97;;;8.60;;
20567;SDS011;10442;49.932;11.592;2023-02-15T03:57:52;9.77;;;8.73;;
20567;SDS011;10442;49.932;11.592;2023-02-15T04:00:39;10.70;;;8.57;;
20567;SDS011;10442;49.932;11.592;2023-02-15T04:03:41;9.50;;;8.50;;
20567;SDS011;10442;49.932;11.592;2023-02-15T04:06:14;12.50;;;9.97;;
20567;SDS011;10442;49.932;11.592;2023-02-15T04:08:42;10.43;;;8.87;;
20567;SDS011;10442;49.932;11.592;2023-02-15T04:11:28;11.07;;;9.27;;
20567;SDS011;10442;49.932;11.592;2023-02-15T04:13:55;12.87;;;9.60;;
20567;SDS011;10442;49.932;11.592;2023-02-15T04:16:23;9.97;;;8.03;;
20567;SDS011;10442;49.932;11.592;2023-02-15T04:18:51;11.23;;;8.57;;
20567;SDS011;10442;49.932;11.592;2023-02-15T04:21:37;11.23;;;9.07;;
20567;SDS011;10442;49.932;11.592;2023-02-15T04:24:23;12.27;;;9.73;;
20567;SDS011;10442;49.932;11.592;2023-02-15T04:27:09;12.13;;;9.87;;
20567;SDS011;10442;49.932;11.592;2023-02-15T04:29:36;11.60;;;9.33;;
20567;SDS011;10442;49.932;11.592;2023-02-15T04:32:03;12.97;;;10.77;;
20567;SDS011;10442;49.932;11.592;2023-02-15T04:34:31;11.83;;;9.53;;
20567;SDS011;10442;49.932;11.592;2023-02-15T04:36:58;12.23;;;10.00;;
20567;SDS011;10442;49.932;11.592;2023-02-15T04:39:25;12.40;;;9.63;;
20567;SDS011;10442;49.932;11.592;2023-02-15T04:41:53;12.43;;;8.80;;
20567;SDS011;10442;49.932;11.592;2023-02-15T04:44:20;11.67;;;9.27;;
20567;SDS011;10442;49.932;11.592;2023-02-15T04:46:48;13.30;;;10.30;;
20567;SDS011;10442;49.932;11.592;2023-02-15T04:49:15;11.90;;;8.57;;
20567;SDS011;10442;49.932;11.592;2023-02-15T04:51:43;13.07;;;9.53;;
20567;SDS011;10442;49.932;11.592;2023-02-15T04:54:10;11.83;;;9.33;;
20567;SDS011;10442;49.932;11.592;2023-02-15T04:56:37;10.13;;;7.43;;
20567;SDS011;10442;49.932;11.592;2023-02-15T04:59:06;9.77;;;8.33;;
20567;SDS011;10442;49.932;11.592;2023-02-15T05:01:33;11.13;;;8.60;;
20567;SDS011;10442;49.932;11.592;2023-02-15T05:04:01;8.90;;;8.00;;
20567;SDS011;10442;49.932;11.592;2023-02-15T05:06:29;11.93;;;9.47;;
20567;SDS011;10442;49.932;11.592;2023-02-15T05:08:57;11.87;;;10.17;;
20567;SDS011;10442;49.932;11.592;2023-02-15T05:11:26;9.43;;;8.30;;
20567;SDS011;10442;49.932;11.592;2023-02-15T05:13:53;9.97;;;8.67;;
20567;SDS011;10442;49.932;11.592;2023-02-15T05:16:21;10.47;;;8.30;;
20567;SDS011;10442;49.932;11.592;2023-02-15T05:18:49;9.83;;;8.13;;
20567;SDS011;10442;49.932;11.592;2023-02-15T05:21:16;10.87;;;9.00;;
20567;SDS011;10442;49.932;11.592;2023-02-15T05:23:44;10.87;;;9.20;;
20567;SDS011;10442;49.932;11.592;2023-02-15T05:26:12;9.50;;;8.33;;
20567;SDS011;10442;49.932;11.592;2023-02-15T05:29:03;11.87;;;8.63;;
20567;SDS011;10442;49.932;11.592;2023-02-15T05:31:31;11.20;;;9.50;;
20567;SDS011;10442;49.932;11.592;2023-02-15T05:34:00;11.53;;;9.73;;
20567;SDS011;10442;49.932;11.592;2023-02-15T05:36:27;11.90;;;9.87;;
20567;SDS011;10442;49.932;11.592;2023-02-15T05:38:55;12.93;;;10.80;;
20567;SDS011;10442;49.932;11.592;2023-02-15T05:41:23;12.33;;;10.10;;
20567;SDS011;10442;49.932;11.592;2023-02-15T05:43:51;13.83;;;10.40;;
20567;SDS011;10442;49.932;11.592;2023-02-15T05:46:18;12.40;;;9.70;;
20567;SDS011;10442;49.932;11.592;2023-02-15T05:48:45;10.43;;;8.20;;
20567;SDS011;10442;49.932;11.592;2023-02-15T05:51:13;11.60;;;8.90;;
20567;SDS011;10442;49.932;11.592;2023-02-15T05:53:42;11.50;;;8.20;;
20567;SDS011;10442;49.932;11.592;2023-02-15T05:56:10;10.43;;;7.77;;
20567;SDS011;10442;49.932;11.592;2023-02-15T05:58:39;12.10;;;8.90;;
20567;SDS011;10442;49.932;11.592;2023-02-15T06:03:37;10.43;;;8.90;;
20567;SDS011;10442;49.932;11.592;2023-02-15T06:06:04;12.67;;;10.17;;
20567;SDS011;10442;49.932;11.592;2023-02-15T06:08:33;12.30;;;9.90;;
20567;SDS011;10442;49.932;11.592;2023-02-15T06:11:02;12.47;;;9.40;;
20567;SDS011;10442;49.932;11.592;2023-02-15T06:13:31;10.70;;;9.40;;
20567;SDS011;10442;49.932;11.592;2023-02-15T06:16:02;9.43;;;7.93;;
20567;SDS011;10442;49.932;11.592;2023-02-15T06:18:30;11.17;;;9.17;;
20567;SDS011;10442;49.932;11.592;2023-02-15T06:20:57;11.90;;;9.63;;
20567;SDS011;10442;49.932;11.592;2023-02-15T06:23:25;10.27;;;8.47;;
20567;SDS011;10442;49.932;11.592;2023-02-15T06:25:52;12.20;;;9.93;;
20567;SDS011;10442;49.932;11.592;2023-02-15T06:28:20;11.60;;;9.63;;
20567;SDS011;10442;49.932;11.592;2023-02-15T06:30:47;14.27;;;10.97;;
20567;SDS011;10442;49.932;11.592;2023-02-15T06:33:15;13.50;;;10.03;;
20567;SDS011;10442;49.932;11.592;2023-02-15T06:35:42;17.03;;;10.30;;
20567;SDS011;10442;49.932;11.592;2023-02-15T06:38:11;14.40;;;11.07;;
20567;SDS011;10442;49.932;11.592;2023-02-15T06:40:38;13.07;;;9.30;;
20567;SDS011;10442;49.932;11.592;2023-02-15T06:43:06;14.53;;;10.17;;
20567;SDS011;10442;49.932;11.592;2023-02-15T06:45:33;11.93;;;10.00;;
20567;SDS011;10442;49.932;11.592;2023-02-15T06:48:01;15.40;;;11.77;;
20567;SDS011;10442;49.932;11.592;2023-02-15T06:50:28;15.10;;;11.47;;
20567;SDS011;10442;49.932;11.592;2023-02-15T06:52:57;15.70;;;11.50;;
20567;SDS011;10442;49.932;11.592;2023-02-15T06:55:25;14.67;;;11.17;;
20567;SDS011;10442;49.932;11.592;2023-02-15T06:57:53;17.47;;;12.10;;
20567;SDS011;10442;49.932;11.592;2023-02-15T07:00:21;14.87;;;11.57;;
20567;SDS011;10442;49.932;11.592;2023-02-15T07:02:53;12.17;;;9.83;;
20567;SDS011;10442;49.932;11.592;2023-02-15T07:05:25;12.70;;;10.13;;
20567;SDS011;10442;49.932;11.592;2023-02-15T07:07:57;13.73;;;11.93;;
20567;SDS011;10442;49.932;11.592;2023-02-15T07:10:25;12.93;;;10.07;;
20567;SDS011;10442;49.932;11.592;2023-02-15T07:12:54;14.03;;;11.20;;
20567;SDS011;10442;49.932;11.592;2023-02-15T07:15:21;14.60;;;11.23;;
20567;SDS011;10442;49.932;11.592;2023-02-15T07:17:49;12.63;;;10.33;;
20567;SDS011;10442;49.932;11.592;2023-02-15T07:20:18;12.70;;;10.43;;
20567;SDS011;10442;49.932;11.592;2023-02-15T07:22:47;14.67;;;11.73;;
20567;SDS011;10442;49.932;11.592;2023-02-15T07:25:15;14.90;;;11.70;;
20567;SDS011;10442;49.932;11.592;2023-02-15T07:27:43;14.63;;;11.73;;
20567;SDS011;10442;49.932;11.592;2023-02-15T07:30:12;17.83;;;12.53;;
20567;SDS011;10442;49.932;11.592;2023-02-15T07:32:42;14.60;;;11.17;;
20567;SDS011;10442;49.932;11.592;2023-02-15T07:35:31;15.27;;;11.17;;
20567;SDS011;10442;49.932;11.592;2023-02-15T07:38:00;13.30;;;10.40;;
20567;SDS011;10442;49.932;11.592;2023-02-15T07:40:27;12.90;;;9.80;;
20567;SDS011;10442;49.932;11.592;2023-02-15T07:42:57;15.60;;;11.40;;
20567;SDS011;10442;49.932;11.592;2023-02-15T07:45:26;14.57;;;11.40;;
20567;SDS011;10442;49.932;11.592;2023-02-15T07:47:53;13.43;;;10.13;;
20567;SDS011;10442;49.932;11.592;2023-02-15T07:50:21;11.23;;;10.03;;
20567;SDS011;10442;49.932;11.592;2023-02-15T07:52:49;12.60;;;9.13;;
20567;SDS011;10442;49.932;11.592;2023-02-15T07:55:16;10.80;;;8.30;;
20567;SDS011;10442;49.932;11.592;2023-02-15T07:57:45;12.17;;;8.23;;
20567;SDS011;10442;49.932;11.592;2023-02-15T08:00:15;12.77;;;9.03;;
20567;SDS011;10442;49.932;11.592;2023-02-15T08:02:48;9.90;;;8.53;;
20567;SDS011;10442;49.932;11.592;2023-02-15T08:05:36;11.67;;;9.73;;
20567;SDS011;10442;49.932;11.592;2023-02-15T08:08:04;12.67;;;9.50;;
20567;SDS011;10442;49.932;11.592;2023-02-15T08:10:32;15.03;;;12.40;;
20567;SDS011;10442;49.932;11.592;2023-02-15T08:13:19;14.47;;;11.97;;
20567;SDS011;10442;49.932;11.592;2023-02-15T08:15:50;14.50;;;10.70;;
20567;SDS011;10442;49.932;11.592;2023-02-15T08:18:17;14.47;;;11.50;;
20567;SDS011;10442;49.932;11.592;2023-02-15T08:20:49;14.83;;;11.17;;
20567;SDS011;10442;49.932;11.592;2023-02-15T08:23:17;15.57;;;12.33;;
20567;SDS011;10442;49.932;11.592;2023-02-15T08:25:44;14.43;;;11.50;;
20567;SDS011;10442;49.932;11.592;2023-02-15T08:28:12;13.80;;;10.87;;
20567;SDS011;10442;49.932;11.592;2023-02-15T08:30:39;12.50;;;9.80;;
20567;SDS011;10442;49.932;11.592;2023-02-15T08:33:07;11.77;;;9.63;;
20567;SDS011;10442;49.932;11.592;2023-02-15T08:35:36;13.97;;;10.90;;
20567;SDS011;10442;49.932;11.592;2023-02-15T08:38:04;13.30;;;10.30;;
20567;SDS011;10442;49.932;11.592;2023-02-15T08:40:32;14.33;;;10.87;;
20567;SDS011;10442;49.932;11.592;2023-02-15T08:42:59;11.83;;;10.03;;
20567;SDS011;10442;49.932;11.592;2023-02-15T08:45:27;10.90;;;9.30;;
20567;SDS011;10442;49.932;11.592;2023-02-15T08:47:54;9.87;;;8.73;;
20567;SDS011;10442;49.932;11.592;2023-02-15T08:50:22;10.00;;;8.97;;
20567;SDS011;10442;49.932;11.592;2023-02-15T08:52:49;10.50;;;9.20;;
20567;SDS011;10442;49.932;11.592;2023-02-15T08:55:17;11.40;;;9.27;;
20567;SDS011;10442;49.932;11.592;2023-02-15T08:57:45;12.90;;;9.70;;
20567;SDS011;10442;49.932;11.592;2023-02-15T09:00:13;12.20;;;10.83;;
20567;SDS011;10442;49.932;11.592;2023-02-15T09:02:40;10.87;;;8.87;;
20567;SDS011;10442;49.932;11.592;2023-02-15T09:05:08;10.13;;;8.53;;
20567;SDS011;10442;49.932;11.592;2023-02-15T09:07:35;11.70;;;9.50;;
20567;SDS011;10442;49.932;11.592;2023-02-15T09:10:03;12.93;;;10.00;;
20567;SDS011;10442;49.932;11.592;2023-02-15T09:12:31;10.77;;;9.17;;
20567;SDS011;10442;49.932;11.592;2023-02-15T09:14:59;10.03;;;8.50;;
20567;SDS011;10442;49.932;11.592;2023-02-15T09:17:26;12.17;;;10.53;;
20567;SDS011;10442;49.932;11.592;2023-02-15T09:19:53;11.23;;;9.47;;
20567;SDS011;10442;49.932;11.592;2023-02-15T09:22:21;11.83;;;10.60;;
20567;SDS011;10442;49.932;11.592;2023-02-15T09:24:48;10.33;;;9.33;;
20567;SDS011;10442;49.932;11.592;2023-02-15T09:27:16;13.17;;;10.67;;
20567;SDS011;10442;49.932;11.592;2023-02-15T09:29:43;10.70;;;9.33;;
20567;SDS011;10442;49.932;11.592;2023-02-15T09:32:13;14.67;;;11.23;;
20567;SDS011;10442;49.932;11.592;2023-02-15T09:34:40;12.07;;;10.50;;
20567;SDS011;10442;49.932;11.592;2023-02-15T09:37:08;12.07;;;10.77;;
20567;SDS011;10442;49.932;11.592;2023-02-15T09:39:35;10.87;;;9.53;;
20567;SDS011;10442;49.932;11.592;2023-02-15T09:51:14;11.60;;;10.40;;
20567;SDS011;10442;49.932;11.592;2023-02-15T09:57:15;14.30;;;11.87;;
20567;SDS011;10442;49.932;11.592;2023-02-15T10:06:11;13.00;;;10.83;;
20567;SDS011;10442;49.932;11.592;2023-02-15T10:12:02;12.90;;;11.50;;
20567;SDS011;10442;49.932;11.592;2023-02-15T10:22:41;13.20;;;10.27;;
20567;SDS011;10442;49.932;11.592;2023-02-15T10:25:19;14.63;;;12.70;;
20567;SDS011;10442;49.932;11.592;2023-02-15T10:28:19;12.97;;;10.40;;
20567;SDS011;10442;49.932;11.592;2023-02-15T10:30:48;12.10;;;10.63;;
20567;SDS011;10442;49.932;11.592;2023-02-15T10:36:11;12.67;;;11.07;;
20567;SDS011;10442;49.932;11.592;2023-02-15T10:47:41;11.60;;;10.40;;
20567;SDS011;10442;49.932;11.592;2023-02-15T11:04:14;11.93;;;10.00;;
20567;SDS011;10442;49.932;11.592;2023-02-15T11:06:55;14.87;;;11.80;;
20567;SDS011;10442;49.932;11.592;2023-02-15T11:09:29;13.67;;;12.20;;
20567;SDS011;10442;49.932;11.592;2023-02-15T11:12:04;12.27;;;11.03;;
20567;SDS011;10442;49.932;11.592;2023-02-15T11:14:54;13.37;;;10.43;;
20567;SDS011;10442;49.932;11.592;2023-02-15T11:17:35;11.27;;;9.93;;
20567;SDS011;10442;49.932;11.592;2023-02-15T11:22:49;13.83;;;10.93;;
20567;SDS011;10442;49.932;11.592;2023-02-15T11:25:32;14.50;;;10.87;;
20567;SDS011;10442;49.932;11.592;2023-02-15T11:28:03;12.70;;;10.53;;
20567;SDS011;10442;49.932;11.592;2023-02-15T11:30:41;14.03;;;10.37;;
20567;SDS011;10442;49.932;11.592;2023-02-15T11:33:20;13.13;;;11.10;;
20567;SDS011;10442;49.932;11.592;2023-02-15T11:36:00;12.60;;;11.03;;
20567;SDS011;10442;49.932;11.592;2023-02-15T11:38:32;13.50;;;11.10;;
20567;SDS011;10442;49.932;11.592;2023-02-15T11:41:05;11.77;;;10.40;;
20567;SDS011;10442;49.932;11.592;2023-02-15T11:43:40;13.60;;;11.97;;
20567;SDS011;10442;49.932;11.592;2023-02-15T11:46:30;14.03;;;11.00;;
20567;SDS011;10442;49.932;11.592;2023-02-15T11:48:58;12.20;;;10.83;;
20567;SDS011;10442;49.932;11.592;2023-02-15T11:51:26;14.37;;;12.87;;
20567;SDS011;10442;49.932;11.592;2023-02-15T11:53:55;14.50;;;11.80;;
20567;SDS011;10442;49.932;11.592;2023-02-15T11:56:25;12.57;;;11.27;;
20567;SDS011;10442;49.932;11.592;2023-02-15T11:59:00;13.43;;;12.03;;
20567;SDS011;10442;49.932;11.592;2023-02-15T12:02:07;14.00;;;12.10;;
20567;SDS011;10442;49.932;11.592;2023-02-15T12:04:26;12.57;;;11.27;;
20567;SDS011;10442;49.932;11.592;2023-02-15T12:07:15;15.83;;;12.40;;
20567;SDS011;10442;49.932;11.592;2023-02-15T12:12:27;15.03;;;12.30;;
20567;SDS011;10442;49.932;11.592;2023-02-15T12:14:57;14.07;;;11.77;;
20567;SDS011;10442;49.932;11.592;2023-02-15T12:17:27;12.23;;;10.63;;
20567;SDS011;10442;49.932;11.592;2023-02-15T12:22:40;15.83;;;11.63;;
20567;SDS011;10442;49.932;11.592;2023-02-15T12:27:50;24.97;;;16.80;;
20567;SDS011;10442;49.932;11.592;2023-02-15T12:30:36;14.53;;;13.03;;
20567;SDS011;10442;49.932;11.592;2023-02-15T12:33:13;31.10;;;23.47;;
20567;SDS011;10442;49.932;11.592;2023-02-15T12:35:42;22.97;;;18.77;;
20567;SDS011;10442;49.932;11.592;2023-02-15T12:40:39;16.87;;;12.17;;
20567;SDS011;10442;49.932;11.592;2023-02-15T12:48:41;17.70;;;15.80;;
20567;SDS011;10442;49.932;11.592;2023-02-15T12:51:09;17.33;;;15.63;;
20567;SDS011;10442;49.932;11.592;2023-02-15T12:53:41;13.00;;;11.60;;
20567;SDS011;10442;49.932;11.592;2023-02-15T12:56:11;14.90;;;13.00;;
20567;SDS011;10442;49.932;11.592;2023-02-15T12:58:39;13.43;;;12.13;;
20567;SDS011;10442;49.932;11.592;2023-02-15T13:03:49;11.83;;;10.63;;
20567;SDS011;10442;49.932;11.592;2023-02-15T13:06:25;12.93;;;11.50;;
20567;SDS011;10442;49.932;11.592;2023-02-15T13:08:54;13.60;;;12.10;;
20567;SDS011;10442;49.932;11.592;2023-02-15T13:11:26;13.27;;;11.87;;
20567;SDS011;10442;49.932;11.592;2023-02-15T13:14:02;13.47;;;12.07;;
20567;SDS011;10442;49.932;11.592;2023-02-15T13:16:35;12.10;;;10.83;;
20567;SDS011;10442;49.932;11.592;2023-02-15T13:19:12;12.97;;;11.23;;
20567;SDS011;10442;49.932;11.592;2023-02-15T13:21:53;11.90;;;10.67;;
20567;SDS011;10442;49.932;11.592;2023-02-15T13:24:25;13.93;;;11.80;;
20567;SDS011;10442;49.932;11.592;2023-02-15T13:26:56;13.77;;;11.90;;
20567;SDS011;10442;49.932;11.592;2023-02-15T13:29:41;13.73;;;11.77;;
20567;SDS011;10442;49.932;11.592;2023-02-15T13:32:34;14.37;;;11.83;;
20567;SDS011;10442;49.932;11.592;2023-02-15T13:35:05;14.83;;;12.10;;
20567;SDS011;10442;49.932;11.592;2023-02-15T13:40:33;15.73;;;13.13;;
20567;SDS011;10442;49.932;11.592;2023-02-15T13:49:07;12.23;;;10.97;;
20567;SDS011;10442;49.932;11.592;2023-02-15T13:52:01;11.77;;;10.63;;
20567;SDS011;10442;49.932;11.592;2023-02-15T13:55:00;12.33;;;11.13;;
20567;SDS011;10442;49.932;11.592;2023-02-15T14:11:49;12.60;;;11.07;;
20567;SDS011;10442;49.932;11.592;2023-02-15T14:14:30;13.20;;;11.90;;
20567;SDS011;10442;49.932;11.592;2023-02-15T14:17:24;14.83;;;13.23;;
20567;SDS011;10442;49.932;11.592;2023-02-15T14:22:44;14.57;;;11.13;;
20567;SDS011;10442;49.932;11.592;2023-02-15T14:28:10;12.97;;;11.57;;
20567;SDS011;10442;49.932;11.592;2023-02-15T14:30:46;12.97;;;11.57;;
20567;SDS011;10442;49.932;11.592;2023-02-15T14:33:25;13.33;;;11.33;;
20567;SDS011;10442;49.932;11.592;2023-02-15T14:35:59;12.63;;;11.27;;
20567;SDS011;10442;49.932;11.592;2023-02-15T14:41:31;14.07;;;11.00;;
20567;SDS011;10442;49.932;11.592;2023-02-15T14:44:28;14.27;;;11.60;;
20567;SDS011;10442;49.932;11.592;2023-02-15T14:47:10;13.07;;;11.67;;
20567;SDS011;10442;49.932;11.592;2023-02-15T14:49:46;13.97;;;12.47;;
20567;SDS011;10442;49.932;11.592;2023-02-15T14:52:14;12.90;;;10.17;;
20567;SDS011;10442;49.932;11.592;2023-02-15T15:02:23;13.13;;;11.40;;
20567;SDS011;10442;49.932;11.592;2023-02-15T15:05:11;12.13;;;10.90;;
20567;SDS011;10442;49.932;11.592;2023-02-15T15:07:48;12.07;;;10.87;;
20567;SDS011;10442;49.932;11.592;2023-02-15T15:12:51;12.43;;;11.13;;
20567;SDS011;10442;49.932;11.592;2023-02-15T15:17:59;12.20;;;10.60;;
20567;SDS011;10442;49.932;11.592;2023-02-15T15:25:46;14.27;;;12.87;;
20567;SDS011;10442;49.932;11.592;2023-02-15T15:31:18;12.20;;;10.97;;
20567;SDS011;10442;49.932;11.592;2023-02-15T15:39:24;16.03;;;13.50;;
20567;SDS011;10442;49.932;11.592;2023-02-15T15:47:53;13.80;;;11.73;;
20567;SDS011;10442;49.932;11.592;2023-02-15T15:50:38;14.77;;;12.37;;
20567;SDS011;10442;49.932;11.592;2023-02-15T15:53:13;13.43;;;11.93;;
20567;SDS011;10442;49.932;11.592;2023-02-15T15:55:52;16.33;;;12.93;;
20567;SDS011;10442;49.932;11.592;2023-02-15T15:58:28;15.77;;;13.80;;
20567;SDS011;10442;49.932;11.592;2023-02-15T16:01:05;14.13;;;12.60;;
20567;SDS011;10442;49.932;11.592;2023-02-15T16:03:36;19.73;;;13.47;;
20567;SDS011;10442;49.932;11.592;2023-02-15T16:06:04;14.97;;;12.00;;
20567;SDS011;10442;49.932;11.592;2023-02-15T16:08:41;16.43;;;13.90;;
20567;SDS011;10442;49.932;11.592;2023-02-15T16:11:22;17.80;;;12.83;;
20567;SDS011;10442;49.932;11.592;2023-02-15T16:13:52;14.50;;;12.93;;
20567;SDS011;10442;49.932;11.592;2023-02-15T16:16:24;17.77;;;13.83;;
20567;SDS011;10442;49.932;11.592;2023-02-15T16:18:57;15.60;;;12.23;;
20567;SDS011;10442;49.932;11.592;2023-02-15T16:21:31;15.97;;;12.60;;
20567;SDS011;10442;49.932;11.592;2023-02-15T16:29:32;17.10;;;14.23;;
20567;SDS011;10442;49.932;11.592;2023-02-15T16:37:30;15.43;;;13.83;;
20567;SDS011;10442;49.932;11.592;2023-02-15T16:39:59;16.80;;;12.77;;
20567;SDS011;10442;49.932;11.592;2023-02-15T16:42:28;14.20;;;12.50;;
20567;SDS011;10442;49.932;11.592;2023-02-15T16:45:05;16.43;;;14.03;;
20567;SDS011;10442;49.932;11.592;2023-02-15T16:47:40;17.13;;;14.27;;
20567;SDS011;10442;49.932;11.592;2023-02-15T16:50:19;17.10;;;14.17;;
20567;SDS011;10442;49.932;11.592;2023-02-15T16:52:51;15.60;;;13.47;;
20567;SDS011;10442;49.932;11.592;2023-02-15T16:55:20;17.20;;;14.27;;
20567;SDS011;10442;49.932;11.592;2023-02-15T16:57:50;18.93;;;14.10;;
20567;SDS011;10442;49.932;11.592;2023-02-15T17:00:24;15.47;;;13.80;;
20567;SDS011;10442;49.932;11.592;2023-02-15T17:05:40;22.47;;;17.50;;
20567;SDS011;10442;49.932;11.592;2023-02-15T17:08:17;18.87;;;14.63;;
20567;SDS011;10442;49.932;11.592;2023-02-15T17:10:46;20.47;;;16.40;;
20567;SDS011;10442;49.932;11.592;2023-02-15T17:16:35;19.27;;;16.17;;
20567;SDS011;10442;49.932;11.592;2023-02-15T17:19:17;16.20;;;14.50;;
20567;SDS011;10442;49.932;11.592;2023-02-15T17:22:02;15.50;;;13.80;;
20567;SDS011;10442;49.932;11.592;2023-02-15T17:24:34;18.13;;;15.13;;
20567;SDS011;10442;49.932;11.592;2023-02-15T17:27:14;15.60;;;13.33;;
20567;SDS011;10442;49.932;11.592;2023-02-15T17:29:49;16.67;;;14.30;;
20567;SDS011;10442;49.932;11.592;2023-02-15T17:32:25;18.27;;;15.83;;
20567;SDS011;10442;49.932;11.592;2023-02-15T17:37:44;14.77;;;12.30;;
20567;SDS011;10442;49.932;11.592;2023-02-15T17:40:18;14.40;;;12.87;;
20567;SDS011;10442;49.932;11.592;2023-02-15T17:42:53;17.17;;;14.30;;
20567;SDS011;10442;49.932;11.592;2023-02-15T17:45:21;18.03;;;14.10;;
20567;SDS011;10442;49.932;11.592;2023-02-15T17:47:51;20.37;;;14.77;;
20567;SDS011;10442;49.932;11.592;2023-02-15T17:50:20;17.30;;;13.80;;
20567;SDS011;10442;49.932;11.592;2023-02-15T17:52:49;17.83;;;14.10;;
20567;SDS011;10442;49.932;11.592;2023-02-15T17:55:20;18.77;;;15.50;;
20567;SDS011;10442;49.932;11.592;2023-02-15T17:58:13;17.50;;;15.00;;